sensor_id;sensor_type;location;lat;lon;timestamp;pressure;altitude;pressure_sealevel;temperature;humidity
73284;BME280;61519;60.050;18.582;2024-02-16T00:00:46;101648.09;;;4.15;67.55
73284;BME280;61519;60.050;18.582;2024-02-16T00:03:12;101623.41;;;4.08;67.40
73284;BME280;61519;60.050;18.582;2024-02-16T00:05:37;101662.41;;;4.33;67.50
73284;BME280;61519;60.050;18.582;2024-02-16T00:08:03;101646.25;;;4.28;67.20
73284;BME280;61519;60.050;18.582;2024-02-16T00:10:29;101664.69;;;4.38;67.58
73284;BME280;61519;60.050;18.582;2024-02-16T00:12:54;101665.47;;;4.38;67.61
73284;BME280;61519;60.050;18.582;2024-02-16T00:15:20;101648.88;;;4.28;67.23
73284;BME280;61519;60.050;18.582;2024-02-16T00:17:45;101640.53;;;4.23;67.36
73284;BME280;61519;60.050;18.582;2024-02-16T00:20:11;101656.00;;;4.37;67.59
73284;BME280;61519;60.050;18.582;2024-02-16T00:22:39;101640.31;;;4.26;67.56
73284;BME280;61519;60.050;18.582;2024-02-16T00:25:04;101645.56;;;4.37;67.47
73284;BME280;61519;60.050;18.582;2024-02-16T00:27:30;101626.53;;;4.24;67.56
73284;BME280;61519;60.050;18.582;2024-02-16T00:29:56;101636.50;;;4.30;67.52
73284;BME280;61519;60.050;18.582;2024-02-16T00:32:21;101637.94;;;4.34;67.62
73284;BME280;61519;60.050;18.582;2024-02-16T00:34:49;101615.47;;;4.21;67.50
73284;BME280;61519;60.050;18.582;2024-02-16T00:37:17;101615.47;;;4.21;67.60
73284;BME280;61519;60.050;18.582;2024-02-16T00:39:42;101641.63;;;4.43;67.50
73284;BME280;61519;60.050;18.582;2024-02-16T00:42:08;101632.50;;;4.37;67.75
73284;BME280;61519;60.050;18.582;2024-02-16T00:44:33;101609.78;;;4.27;67.47
73284;BME280;61519;60.050;18.582;2024-02-16T00:46:59;101630.81;;;4.36;67.69
73284;BME280;61519;60.050;18.582;2024-02-16T00:49:25;101625.59;;;4.36;67.49
73284;BME280;61519;60.050;18.582;2024-02-16T00:51:50;101599.34;;;4.27;67.34
73284;BME280;61519;60.050;18.582;2024-02-16T00:54:16;101618.00;;;4.44;67.58
73284;BME280;61519;60.050;18.582;2024-02-16T00:56:42;101622.44;;;4.44;67.54
73284;BME280;61519;60.050;18.582;2024-02-16T00:59:07;101611.13;;;4.43;67.53
73284;BME280;61519;60.050;18.582;2024-02-16T01:01:35;101581.19;;;4.25;67.74
73284;BME280;61519;60.050;18.582;2024-02-16T01:04:01;101612.78;;;4.44;67.55
73284;BME280;61519;60.050;18.582;2024-02-16T01:06:27;101606.97;;;4.41;67.64
73284;BME280;61519;60.050;18.582;2024-02-16T01:08:53;101616.13;;;4.46;67.72
73284;BME280;61519;60.050;18.582;2024-02-16T01:11:18;101597.84;;;4.46;67.64
73284;BME280;61519;60.050;18.582;2024-02-16T01:13:45;101596.91;;;4.47;67.62
73284;BME280;61519;60.050;18.582;2024-02-16T01:16:11;101586.78;;;4.43;67.82
73284;BME280;61519;60.050;18.582;2024-02-16T01:18:36;101572.31;;;4.39;67.82
73284;BME280;61519;60.050;18.582;2024-02-16T01:21:03;101561.16;;;4.26;67.67
73284;BME280;61519;60.050;18.582;2024-02-16T01:23:31;101585.75;;;4.45;67.81
73284;BME280;61519;60.050;18.582;2024-02-16T01:25:57;101570.75;;;4.25;67.72
73284;BME280;61519;60.050;18.582;2024-02-16T01:28:23;101573.03;;;4.30;67.81
73284;BME280;61519;60.050;18.582;2024-02-16T01:30:48;101563.28;;;4.32;67.95
73284;BME280;61519;60.050;18.582;2024-02-16T01:33:14;101569.81;;;4.37;67.95
73284;BME280;61519;60.050;18.582;2024-02-16T01:35:39;101549.66;;;4.28;67.88
73284;BME280;61519;60.050;18.582;2024-02-16T01:38:05;101562.69;;;4.39;67.87
73284;BME280;61519;60.050;18.582;2024-02-16T01:40:30;101560.09;;;4.39;68.18
73284;BME280;61519;60.050;18.582;2024-02-16T01:42:57;101565.06;;;4.42;68.17
73284;BME280;61519;60.050;18.582;2024-02-16T01:45:22;101553.69;;;4.43;68.25
73284;BME280;61519;60.050;18.582;2024-02-16T01:47:49;101552.00;;;4.42;68.16
73284;BME280;61519;60.050;18.582;2024-02-16T01:50:16;101545.84;;;4.43;68.09
73284;BME280;61519;60.050;18.582;2024-02-16T01:52:44;101497.41;;;4.17;68.21
73284;BME280;61519;60.050;18.582;2024-02-16T01:55:09;101523.28;;;4.42;68.29
73284;BME280;61519;60.050;18.582;2024-02-16T01:57:54;101500.97;;;4.27;68.44
73284;BME280;61519;60.050;18.582;2024-02-16T02:00:20;101519.72;;;4.43;68.26
73284;BME280;61519;60.050;18.582;2024-02-16T02:02:46;101501.56;;;4.31;68.18
73284;BME280;61519;60.050;18.582;2024-02-16T02:05:12;101507.97;;;4.38;68.27
73284;BME280;61519;60.050;18.582;2024-02-16T02:07:38;101478.44;;;4.26;68.32
73284;BME280;61519;60.050;18.582;2024-02-16T02:10:04;101496.44;;;4.40;68.59
73284;BME280;61519;60.050;18.582;2024-02-16T02:12:29;101499.75;;;4.42;68.16
73284;BME280;61519;60.050;18.582;2024-02-16T02:14:55;101490.16;;;4.43;68.48
73284;BME280;61519;60.050;18.582;2024-02-16T02:17:20;101484.34;;;4.39;68.47
73284;BME280;61519;60.050;18.582;2024-02-16T02:19:46;101477.94;;;4.43;67.96
73284;BME280;61519;60.050;18.582;2024-02-16T02:22:20;101485.78;;;4.43;68.40
73284;BME280;61519;60.050;18.582;2024-02-16T02:24:47;101477.22;;;4.41;68.29
73284;BME280;61519;60.050;18.582;2024-02-16T02:27:14;101453.72;;;4.30;68.61
73284;BME280;61519;60.050;18.582;2024-02-16T02:29:41;101459.56;;;4.34;68.32
73284;BME280;61519;60.050;18.582;2024-02-16T02:32:07;101445.19;;;4.28;68.63
73284;BME280;61519;60.050;18.582;2024-02-16T02:34:33;101455.50;;;4.41;68.71
73284;BME280;61519;60.050;18.582;2024-02-16T02:36:58;101470.94;;;4.44;68.50
73284;BME280;61519;60.050;18.582;2024-02-16T02:39:24;101446.09;;;4.38;68.18
73284;BME280;61519;60.050;18.582;2024-02-16T02:41:49;101412.91;;;4.18;68.49
73284;BME280;61519;60.050;18.582;2024-02-16T02:44:14;101436.41;;;4.29;68.30
73284;BME280;61519;60.050;18.582;2024-02-16T02:46:40;101449.44;;;4.40;68.73
73284;BME280;61519;60.050;18.582;2024-02-16T02:49:05;101441.13;;;4.35;68.26
73284;BME280;61519;60.050;18.582;2024-02-16T02:51:31;101413.88;;;4.28;68.56
73284;BME280;61519;60.050;18.582;2024-02-16T02:53:56;101424.63;;;4.35;68.58
73284;BME280;61519;60.050;18.582;2024-02-16T02:56:22;101418.84;;;4.31;68.57
73284;BME280;61519;60.050;18.582;2024-02-16T02:58:47;101409.56;;;4.27;68.44
73284;BME280;61519;60.050;18.582;2024-02-16T03:01:13;101404.47;;;4.26;68.60
73284;BME280;61519;60.050;18.582;2024-02-16T03:03:39;101391.06;;;4.19;68.58
73284;BME280;61519;60.050;18.582;2024-02-16T03:06:06;101427.97;;;4.37;68.71
73284;BME280;61519;60.050;18.582;2024-02-16T03:08:32;101422.28;;;4.32;68.82
73284;BME280;61519;60.050;18.582;2024-02-16T03:10:57;101418.56;;;4.34;68.73
73284;BME280;61519;60.050;18.582;2024-02-16T03:13:25;101408.75;;;4.38;68.74
73284;BME280;61519;60.050;18.582;2024-02-16T03:15:51;101374.47;;;4.20;68.75
73284;BME280;61519;60.050;18.582;2024-02-16T03:18:18;101374.00;;;4.26;68.54
73284;BME280;61519;60.050;18.582;2024-02-16T03:20:43;101391.16;;;4.40;68.76
73284;BME280;61519;60.050;18.582;2024-02-16T03:23:13;101375.16;;;4.33;68.89
73284;BME280;61519;60.050;18.582;2024-02-16T03:25:38;101349.06;;;4.11;68.85
73284;BME280;61519;60.050;18.582;2024-02-16T03:28:04;101384.41;;;4.37;68.90
73284;BME280;61519;60.050;18.582;2024-02-16T03:30:30;101379.19;;;4.37;68.99
73284;BME280;61519;60.050;18.582;2024-02-16T03:32:55;101335.91;;;4.13;69.17
73284;BME280;61519;60.050;18.582;2024-02-16T03:35:21;101348.69;;;4.27;69.14
73284;BME280;61519;60.050;18.582;2024-02-16T03:37:46;101335.31;;;4.20;69.06
73284;BME280;61519;60.050;18.582;2024-02-16T03:40:12;101332.69;;;4.20;69.33
73284;BME280;61519;60.050;18.582;2024-02-16T03:42:38;101340.03;;;4.26;69.24
73284;BME280;61519;60.050;18.582;2024-02-16T03:45:05;101333.03;;;4.27;69.52
73284;BME280;61519;60.050;18.582;2024-02-16T03:47:30;101319.38;;;4.23;69.46
73284;BME280;61519;60.050;18.582;2024-02-16T03:49:56;101346.44;;;4.33;69.43
73284;BME280;61519;60.050;18.582;2024-02-16T03:52:21;101311.81;;;4.20;69.54
73284;BME280;61519;60.050;18.582;2024-02-16T03:54:46;101329.56;;;4.37;69.47
73284;BME280;61519;60.050;18.582;2024-02-16T03:57:15;101310.81;;;4.32;69.69
73284;BME280;61519;60.050;18.582;2024-02-16T03:59:45;101309.59;;;4.36;69.53
73284;BME280;61519;60.050;18.582;2024-02-16T04:02:11;101297.75;;;4.32;69.97
73284;BME280;61519;60.050;18.582;2024-02-16T04:04:36;101273.84;;;4.16;69.79
73284;BME280;61519;60.050;18.582;2024-02-16T04:07:03;101287.44;;;4.31;69.85
73284;BME280;61519;60.050;18.582;2024-02-16T04:09:28;101248.25;;;4.10;69.85
73284;BME280;61519;60.050;18.582;2024-02-16T04:11:54;101277.81;;;4.31;69.93
73284;BME280;61519;60.050;18.582;2024-02-16T04:14:19;101276.75;;;4.34;70.09
73284;BME280;61519;60.050;18.582;2024-02-16T04:16:44;101276.84;;;4.32;70.25
73284;BME280;61519;60.050;18.582;2024-02-16T04:19:10;101255.78;;;4.24;70.37
73284;BME280;61519;60.050;18.582;2024-02-16T04:21:35;101253.88;;;4.26;70.15
73284;BME280;61519;60.050;18.582;2024-02-16T04:24:01;101216.56;;;4.04;70.42
73284;BME280;61519;60.050;18.582;2024-02-16T04:26:26;101256.94;;;4.31;70.46
73284;BME280;61519;60.050;18.582;2024-02-16T04:28:52;101218.56;;;4.11;70.52
73284;BME280;61519;60.050;18.582;2024-02-16T04:31:17;101241.53;;;4.28;70.52
73284;BME280;61519;60.050;18.582;2024-02-16T04:33:42;101207.19;;;4.12;70.68
73284;BME280;61519;60.050;18.582;2024-02-16T04:36:08;101223.28;;;4.17;70.69
73284;BME280;61519;60.050;18.582;2024-02-16T04:38:34;101229.69;;;4.24;71.04
73284;BME280;61519;60.050;18.582;2024-02-16T04:40:59;101201.00;;;4.13;71.14
73284;BME280;61519;60.050;18.582;2024-02-16T04:43:24;101198.38;;;4.13;70.87
73284;BME280;61519;60.050;18.582;2024-02-16T04:45:50;101185.84;;;4.07;71.16
73284;BME280;61519;60.050;18.582;2024-02-16T04:48:15;101190.56;;;4.13;70.89
73284;BME280;61519;60.050;18.582;2024-02-16T04:50:41;101194.53;;;4.28;71.13
73284;BME280;61519;60.050;18.582;2024-02-16T04:53:06;101187.91;;;4.24;71.21
73284;BME280;61519;60.050;18.582;2024-02-16T04:55:32;101180.69;;;4.17;71.08
73284;BME280;61519;60.050;18.582;2024-02-16T04:57:57;101162.81;;;4.12;71.13
73284;BME280;61519;60.050;18.582;2024-02-16T05:00:23;101189.31;;;4.28;71.11
73284;BME280;61519;60.050;18.582;2024-02-16T05:02:50;101168.94;;;4.22;71.31
73284;BME280;61519;60.050;18.582;2024-02-16T05:05:16;101149.34;;;4.17;71.32
73284;BME280;61519;60.050;18.582;2024-02-16T05:07:42;101168.16;;;4.31;71.19
73284;BME280;61519;60.050;18.582;2024-02-16T05:10:08;101153.28;;;4.22;71.32
73284;BME280;61519;60.050;18.582;2024-02-16T05:12:34;101161.28;;;4.30;71.26
73284;BME280;61519;60.050;18.582;2024-02-16T05:15:00;101147.28;;;4.31;71.39
73284;BME280;61519;60.050;18.582;2024-02-16T05:17:27;101141.34;;;4.29;71.53
73284;BME280;61519;60.050;18.582;2024-02-16T05:19:53;101143.25;;;4.27;71.38
73284;BME280;61519;60.050;18.582;2024-02-16T05:22:21;101152.63;;;4.30;71.72
73284;BME280;61519;60.050;18.582;2024-02-16T05:24:49;101130.22;;;4.27;71.27
73284;BME280;61519;60.050;18.582;2024-02-16T05:27:14;101104.19;;;4.16;71.48
73284;BME280;61519;60.050;18.582;2024-02-16T05:29:41;101113.72;;;4.27;71.37
73284;BME280;61519;60.050;18.582;2024-02-16T05:32:06;101072.91;;;4.05;71.51
73284;BME280;61519;60.050;18.582;2024-02-16T05:34:32;101102.47;;;4.26;71.73
73284;BME280;61519;60.050;18.582;2024-02-16T05:37:05;101103.03;;;4.30;71.73
73284;BME280;61519;60.050;18.582;2024-02-16T05:39:32;101097.81;;;4.30;71.64
73284;BME280;61519;60.050;18.582;2024-02-16T05:42:00;101073.97;;;4.23;71.83
73284;BME280;61519;60.050;18.582;2024-02-16T05:44:26;101064.75;;;4.19;71.51
73284;BME280;61519;60.050;18.582;2024-02-16T05:46:51;101072.50;;;4.30;71.81
73284;BME280;61519;60.050;18.582;2024-02-16T05:49:17;101077.63;;;4.32;71.83
73284;BME280;61519;60.050;18.582;2024-02-16T05:51:42;101062.06;;;4.30;71.96
73284;BME280;61519;60.050;18.582;2024-02-16T05:54:23;101025.16;;;4.14;72.00
73284;BME280;61519;60.050;18.582;2024-02-16T05:56:49;101056.16;;;4.28;72.30
73284;BME280;61519;60.050;18.582;2024-02-16T05:59:14;101046.81;;;4.26;72.18
73284;BME280;61519;60.050;18.582;2024-02-16T06:01:39;101036.22;;;4.27;72.28
73284;BME280;61519;60.050;18.582;2024-02-16T06:04:05;101007.84;;;4.13;72.19
73284;BME280;61519;60.050;18.582;2024-02-16T06:06:31;101023.16;;;4.27;72.37
73284;BME280;61519;60.050;18.582;2024-02-16T06:08:56;101015.34;;;4.27;72.46
73284;BME280;61519;60.050;18.582;2024-02-16T06:11:21;101011.78;;;4.28;72.09
73284;BME280;61519;60.050;18.582;2024-02-16T06:13:47;100973.22;;;4.11;72.29
73284;BME280;61519;60.050;18.582;2024-02-16T06:16:12;100972.38;;;4.11;72.46
73284;BME280;61519;60.050;18.582;2024-02-16T06:18:38;100973.22;;;4.11;72.65
73284;BME280;61519;60.050;18.582;2024-02-16T06:21:04;100950.94;;;4.07;72.44
73284;BME280;61519;60.050;18.582;2024-02-16T06:23:29;100947.09;;;4.11;72.53
73284;BME280;61519;60.050;18.582;2024-02-16T06:25:54;100947.81;;;4.13;72.68
73284;BME280;61519;60.050;18.582;2024-02-16T06:28:20;100969.16;;;4.28;72.87
73284;BME280;61519;60.050;18.582;2024-02-16T06:30:45;100945.19;;;4.13;72.82
73284;BME280;61519;60.050;18.582;2024-02-16T06:33:11;100945.81;;;4.26;72.87
73284;BME280;61519;60.050;18.582;2024-02-16T06:35:36;100922.41;;;4.15;72.94
73284;BME280;61519;60.050;18.582;2024-02-16T06:38:02;100938.69;;;4.28;72.92
73284;BME280;61519;60.050;18.582;2024-02-16T06:40:27;100929.88;;;4.29;72.79
73284;BME280;61519;60.050;18.582;2024-02-16T06:42:52;100907.44;;;4.17;72.97
73284;BME280;61519;60.050;18.582;2024-02-16T06:45:18;100924.66;;;4.29;72.98
73284;BME280;61519;60.050;18.582;2024-02-16T06:47:43;100888.59;;;4.14;73.02
73284;BME280;61519;60.050;18.582;2024-02-16T06:50:09;100878.97;;;4.05;73.04
73284;BME280;61519;60.050;18.582;2024-02-16T06:52:34;100891.06;;;4.15;73.17
73284;BME280;61519;60.050;18.582;2024-02-16T06:55:00;100882.47;;;4.24;73.61
73284;BME280;61519;60.050;18.582;2024-02-16T06:57:25;100898.94;;;4.34;73.47
73284;BME280;61519;60.050;18.582;2024-02-16T06:59:51;100882.34;;;4.35;73.47
73284;BME280;61519;60.050;18.582;2024-02-16T07:02:18;100864.31;;;4.23;73.29
73284;BME280;61519;60.050;18.582;2024-02-16T07:04:43;100858.41;;;4.30;73.53
73284;BME280;61519;60.050;18.582;2024-02-16T07:07:11;100880.13;;;4.40;73.47
73284;BME280;61519;60.050;18.582;2024-02-16T07:09:36;100867.50;;;4.36;73.58
73284;BME280;61519;60.050;18.582;2024-02-16T07:12:02;100869.69;;;4.40;73.87
73284;BME280;61519;60.050;18.582;2024-02-16T07:14:28;100862.56;;;4.42;73.62
73284;BME280;61519;60.050;18.582;2024-02-16T07:16:53;100841.94;;;4.39;73.63
73284;BME280;61519;60.050;18.582;2024-02-16T07:19:18;100848.94;;;4.39;73.84
73284;BME280;61519;60.050;18.582;2024-02-16T07:21:44;100835.50;;;4.43;73.90
73284;BME280;61519;60.050;18.582;2024-02-16T07:24:09;100814.59;;;4.34;74.00
73284;BME280;61519;60.050;18.582;2024-02-16T07:26:35;100786.56;;;4.26;73.76
73284;BME280;61519;60.050;18.582;2024-02-16T07:29:01;100786.97;;;4.31;74.16
73284;BME280;61519;60.050;18.582;2024-02-16T07:31:32;100787.25;;;4.38;74.19
73284;BME280;61519;60.050;18.582;2024-02-16T07:33:57;100762.50;;;4.32;74.19
73284;BME280;61519;60.050;18.582;2024-02-16T07:36:23;100803.88;;;4.56;74.30
73284;BME280;61519;60.050;18.582;2024-02-16T07:38:48;100759.09;;;4.41;74.28
73284;BME280;61519;60.050;18.582;2024-02-16T07:41:13;100786.16;;;4.60;74.55
73284;BME280;61519;60.050;18.582;2024-02-16T07:43:39;100780.13;;;4.50;74.44
73284;BME280;61519;60.050;18.582;2024-02-16T07:46:04;100768.97;;;4.57;74.42
73284;BME280;61519;60.050;18.582;2024-02-16T07:48:29;100770.50;;;4.60;74.25
73284;BME280;61519;60.050;18.582;2024-02-16T07:50:55;100777.88;;;4.64;74.26
73284;BME280;61519;60.050;18.582;2024-02-16T07:53:23;100768.28;;;4.65;74.29
73284;BME280;61519;60.050;18.582;2024-02-16T07:55:48;100759.50;;;4.66;74.28
73284;BME280;61519;60.050;18.582;2024-02-16T07:58:14;100759.50;;;4.66;74.54
73284;BME280;61519;60.050;18.582;2024-02-16T08:00:39;100719.50;;;4.56;74.60
73284;BME280;61519;60.050;18.582;2024-02-16T08:03:04;100730.06;;;4.64;74.43
73284;BME280;61519;60.050;18.582;2024-02-16T08:05:30;100703.38;;;4.60;74.39
73284;BME280;61519;60.050;18.582;2024-02-16T08:07:56;100724.69;;;4.75;74.65
73284;BME280;61519;60.050;18.582;2024-02-16T08:10:22;100708.88;;;4.67;74.65
73284;BME280;61519;60.050;18.582;2024-02-16T08:12:48;100706.09;;;4.78;74.50
73284;BME280;61519;60.050;18.582;2024-02-16T08:15:14;100695.63;;;4.78;74.95
73284;BME280;61519;60.050;18.582;2024-02-16T08:17:39;100688.78;;;4.77;74.59
73284;BME280;61519;60.050;18.582;2024-02-16T08:20:05;100682.00;;;4.84;74.66
73284;BME280;61519;60.050;18.582;2024-02-16T08:22:31;100662.09;;;4.83;74.33
73284;BME280;61519;60.050;18.582;2024-02-16T08:24:57;100661.38;;;4.90;74.48
73284;BME280;61519;60.050;18.582;2024-02-16T08:27:23;100664.53;;;4.94;74.57
73284;BME280;61519;60.050;18.582;2024-02-16T08:29:49;100656.41;;;4.97;74.25
73284;BME280;61519;60.050;18.582;2024-02-16T08:32:16;100610.41;;;4.77;74.67
73284;BME280;61519;60.050;18.582;2024-02-16T08:34:42;100634.53;;;4.98;74.65
73284;BME280;61519;60.050;18.582;2024-02-16T08:37:07;100612.59;;;4.81;74.45
73284;BME280;61519;60.050;18.582;2024-02-16T08:39:33;100638.34;;;5.03;74.54
73284;BME280;61519;60.050;18.582;2024-02-16T08:41:59;100619.03;;;4.87;74.83
73284;BME280;61519;60.050;18.582;2024-02-16T08:44:25;100617.47;;;4.94;74.58
73284;BME280;61519;60.050;18.582;2024-02-16T08:46:51;100640.84;;;5.05;74.83
73284;BME280;61519;60.050;18.582;2024-02-16T08:49:17;100634.25;;;5.01;74.71
73284;BME280;61519;60.050;18.582;2024-02-16T08:51:43;100637.81;;;5.00;74.88
73284;BME280;61519;60.050;18.582;2024-02-16T08:54:08;100620.09;;;4.94;74.79
73284;BME280;61519;60.050;18.582;2024-02-16T08:56:34;100646.44;;;5.10;74.58
73284;BME280;61519;60.050;18.582;2024-02-16T08:59:01;100622.13;;;5.00;74.77
73284;BME280;61519;60.050;18.582;2024-02-16T09:01:34;100625.69;;;5.08;74.75
73284;BME280;61519;60.050;18.582;2024-02-16T09:04:00;100612.09;;;5.05;74.64
73284;BME280;61519;60.050;18.582;2024-02-16T09:06:26;100610.81;;;5.09;74.73
73284;BME280;61519;60.050;18.582;2024-02-16T09:08:51;100630.81;;;5.27;74.64
73284;BME280;61519;60.050;18.582;2024-02-16T09:11:17;100579.72;;;5.06;74.37
73284;BME280;61519;60.050;18.582;2024-02-16T09:13:42;100623.56;;;5.39;74.68
73284;BME280;61519;60.050;18.582;2024-02-16T09:16:08;100602.19;;;5.26;74.66
73284;BME280;61519;60.050;18.582;2024-02-16T09:18:34;100623.66;;;5.47;74.51
73284;BME280;61519;60.050;18.582;2024-02-16T09:20:59;100599.06;;;5.40;74.59
73284;BME280;61519;60.050;18.582;2024-02-16T09:23:26;100623.75;;;5.55;74.81
73284;BME280;61519;60.050;18.582;2024-02-16T09:25:51;100617.25;;;5.59;74.52
73284;BME280;61519;60.050;18.582;2024-02-16T09:28:17;100600.03;;;5.57;74.39
73284;BME280;61519;60.050;18.582;2024-02-16T09:30:44;100606.88;;;5.67;74.39
73284;BME280;61519;60.050;18.582;2024-02-16T09:33:10;100613.69;;;5.78;74.39
73284;BME280;61519;60.050;18.582;2024-02-16T09:35:35;100602.75;;;5.82;74.29
73284;BME280;61519;60.050;18.582;2024-02-16T09:38:00;100599.56;;;5.88;74.06
73284;BME280;61519;60.050;18.582;2024-02-16T09:40:26;100597.31;;;5.93;74.00
73284;BME280;61519;60.050;18.582;2024-02-16T09:42:51;100598.03;;;6.03;74.11
73284;BME280;61519;60.050;18.582;2024-02-16T09:45:17;100604.94;;;6.04;73.94
73284;BME280;61519;60.050;18.582;2024-02-16T09:47:45;100602.97;;;6.06;73.89
73284;BME280;61519;60.050;18.582;2024-02-16T09:50:12;100595.81;;;6.08;74.05
73284;BME280;61519;60.050;18.582;2024-02-16T09:52:39;100590.56;;;6.08;74.40
73284;BME280;61519;60.050;18.582;2024-02-16T09:55:07;100576.59;;;6.00;73.96
73284;BME280;61519;60.050;18.582;2024-02-16T09:57:35;100584.22;;;6.11;74.06
73284;BME280;61519;60.050;18.582;2024-02-16T10:00:02;100569.31;;;6.11;73.80
73284;BME280;61519;60.050;18.582;2024-02-16T10:02:39;100585.97;;;6.28;73.78
73284;BME280;61519;60.050;18.582;2024-02-16T10:05:19;100584.84;;;6.31;73.96
73284;BME280;61519;60.050;18.582;2024-02-16T10:07:45;100581.44;;;6.38;73.53
73284;BME280;61519;60.050;18.582;2024-02-16T10:10:24;100575.22;;;6.39;73.56
73284;BME280;61519;60.050;18.582;2024-02-16T10:12:50;100572.47;;;6.49;73.59
73284;BME280;61519;60.050;18.582;2024-02-16T10:15:22;100566.94;;;6.52;73.84
73284;BME280;61519;60.050;18.582;2024-02-16T10:18:01;100556.97;;;6.55;73.67
73284;BME280;61519;60.050;18.582;2024-02-16T10:20:27;100546.34;;;6.57;73.45
73284;BME280;61519;60.050;18.582;2024-02-16T10:23:06;100533.84;;;6.51;73.71
73284;BME280;61519;60.050;18.582;2024-02-16T10:25:37;100537.97;;;6.53;73.71
73284;BME280;61519;60.050;18.582;2024-02-16T10:28:05;100538.81;;;6.54;73.74
73284;BME280;61519;60.050;18.582;2024-02-16T10:30:35;100545.88;;;6.61;73.71
73284;BME280;61519;60.050;18.582;2024-02-16T10:33:02;100527.84;;;6.58;73.77
73284;BME280;61519;60.050;18.582;2024-02-16T10:35:28;100510.97;;;6.61;73.52
73284;BME280;61519;60.050;18.582;2024-02-16T10:37:54;100501.66;;;6.66;73.71
73284;BME280;61519;60.050;18.582;2024-02-16T10:40:22;100525.19;;;6.84;73.63
73284;BME280;61519;60.050;18.582;2024-02-16T10:42:51;100503.84;;;6.79;73.68
73284;BME280;61519;60.050;18.582;2024-02-16T10:45:17;100482.22;;;6.77;73.65
73284;BME280;61519;60.050;18.582;2024-02-16T10:47:44;100504.06;;;6.93;73.52
73284;BME280;61519;60.050;18.582;2024-02-16T10:50:10;100509.66;;;7.06;73.60
73284;BME280;61519;60.050;18.582;2024-02-16T10:52:36;100516.22;;;7.10;73.61
73284;BME280;61519;60.050;18.582;2024-02-16T10:55:04;100525.75;;;7.20;73.56
73284;BME280;61519;60.050;18.582;2024-02-16T10:57:30;100515.41;;;7.18;73.30
73284;BME280;61519;60.050;18.582;2024-02-16T10:59:58;100487.88;;;7.14;73.25
73284;BME280;61519;60.050;18.582;2024-02-16T11:02:24;100508.41;;;7.35;73.10
73284;BME280;61519;60.050;18.582;2024-02-16T11:04:52;100503.31;;;7.41;73.15
73284;BME280;61519;60.050;18.582;2024-02-16T11:07:19;100472.16;;;7.30;72.88
73284;BME280;61519;60.050;18.582;2024-02-16T11:09:46;100482.84;;;7.45;72.74
73284;BME280;61519;60.050;18.582;2024-02-16T11:12:15;100459.38;;;7.27;72.86
73284;BME280;61519;60.050;18.582;2024-02-16T11:14:45;100518.75;;;7.60;72.71
73284;BME280;61519;60.050;18.582;2024-02-16T11:17:15;100512.34;;;7.55;72.83
73284;BME280;61519;60.050;18.582;2024-02-16T11:19:45;100521.88;;;7.56;72.86
73284;BME280;61519;60.050;18.582;2024-02-16T11:22:15;100512.50;;;7.53;72.75
73284;BME280;61519;60.050;18.582;2024-02-16T11:24:44;100476.09;;;7.34;72.98
73284;BME280;61519;60.050;18.582;2024-02-16T11:27:10;100495.81;;;7.62;72.86
73284;BME280;61519;60.050;18.582;2024-02-16T11:29:37;100481.50;;;7.57;72.97
73284;BME280;61519;60.050;18.582;2024-02-16T11:32:04;100486.75;;;7.73;72.96
73284;BME280;61519;60.050;18.582;2024-02-16T11:34:31;100487.75;;;7.80;72.92
73284;BME280;61519;60.050;18.582;2024-02-16T11:36:58;100499.03;;;7.80;73.03
73284;BME280;61519;60.050;18.582;2024-02-16T11:39:24;100490.88;;;7.75;72.86
73284;BME280;61519;60.050;18.582;2024-02-16T11:44:30;100475.75;;;7.85;72.71
73284;BME280;61519;60.050;18.582;2024-02-16T11:47:00;100438.72;;;7.72;72.58
73284;BME280;61519;60.050;18.582;2024-02-16T11:49:28;100475.09;;;7.91;72.78
73284;BME280;61519;60.050;18.582;2024-02-16T11:51:53;100476.41;;;7.95;73.03
73284;BME280;61519;60.050;18.582;2024-02-16T11:54:19;100448.19;;;7.81;72.65
73284;BME280;61519;60.050;18.582;2024-02-16T11:56:45;100471.47;;;7.92;72.60
73284;BME280;61519;60.050;18.582;2024-02-16T11:59:15;100480.34;;;7.91;72.60
73284;BME280;61519;60.050;18.582;2024-02-16T12:01:56;100475.41;;;7.88;72.73
73284;BME280;61519;60.050;18.582;2024-02-16T12:04:29;100470.50;;;7.85;72.73
73284;BME280;61519;60.050;18.582;2024-02-16T12:06:56;100430.84;;;7.64;72.75
73284;BME280;61519;60.050;18.582;2024-02-16T12:09:22;100453.94;;;7.77;72.53
73284;BME280;61519;60.050;18.582;2024-02-16T12:11:48;100428.22;;;7.64;72.82
73284;BME280;61519;60.050;18.582;2024-02-16T12:14:20;100456.72;;;7.83;72.38
73284;BME280;61519;60.050;18.582;2024-02-16T12:16:56;100444.25;;;7.85;72.52
73284;BME280;61519;60.050;18.582;2024-02-16T12:19:22;100451.31;;;7.85;72.87
73284;BME280;61519;60.050;18.582;2024-02-16T12:21:51;100433.09;;;7.83;72.57
73284;BME280;61519;60.050;18.582;2024-02-16T12:24:18;100436.69;;;7.90;72.79
73284;BME280;61519;60.050;18.582;2024-02-16T12:26:43;100399.63;;;7.77;72.66
73284;BME280;61519;60.050;18.582;2024-02-16T12:29:08;100432.44;;;7.89;72.59
73284;BME280;61519;60.050;18.582;2024-02-16T12:31:38;100428.66;;;7.92;72.55
73284;BME280;61519;60.050;18.582;2024-02-16T12:34:03;100418.00;;;7.85;72.84
73284;BME280;61519;60.050;18.582;2024-02-16T12:36:30;100376.69;;;7.63;72.66
73284;BME280;61519;60.050;18.582;2024-02-16T12:38:55;100392.78;;;7.68;72.55
73284;BME280;61519;60.050;18.582;2024-02-16T12:41:21;100430.13;;;7.86;72.68
73284;BME280;61519;60.050;18.582;2024-02-16T12:43:46;100423.25;;;7.85;72.55
73284;BME280;61519;60.050;18.582;2024-02-16T12:46:12;100421.44;;;7.86;72.75
73284;BME280;61519;60.050;18.582;2024-02-16T12:48:37;100421.94;;;7.89;72.71